Time;durP1;ratioP1;P1;durP2;ratioP2;P2;SDS_P1;SDS_P2;PMS_P1;PMS_P2;Temp;Humidity;BMP_temperature;BMP_pressure;BME280_temperature;BME280_humidity;BME280_pressure;Samples;Min_cycle;Max_cycle;Signal;HPM_P1;HPM_P2
2021/04/12 00:01:07;;;;;;;0.80;0.80;;;;;;;;;;5055048;28;20203;-44
2021/04/12 00:03:44;;;;;;;1.10;1.10;;;;;;;;;;5053566;28;20428;-44
2021/04/12 00:06:23;;;;;;;1.13;1.02;;;;;;;;;;5056040;28;20252;-44
2021/04/12 00:08:53;;;;;;;0.70;0.70;;;;;;;;;;5055428;28;20248;-44
2021/04/12 00:11:32;;;;;;;0.80;0.80;;;;;;;;;;5055551;28;20224;-44
2021/04/12 00:14:06;;;;;;;1.80;0.82;;;;;;;;;;5055712;28;20562;-44
2021/04/12 00:16:38;;;;;;;1.08;0.90;;;;;;;;;;5055448;28;20467;-44
2021/04/12 00:19:14;;;;;;;0.80;0.80;;;;;;;;;;5055128;28;20202;-44
2021/04/12 00:21:42;;;;;;;0.80;0.80;;;;;;;;;;5054867;28;20610;-44
2021/04/12 00:24:08;;;;;;;1.48;1.02;;;;;;;;;;5055592;28;20558;-44
2021/04/12 00:26:43;;;;;;;1.00;0.70;;;;;;;;;;5055976;28;20178;-44
2021/04/12 00:29:12;;;;;;;0.70;0.70;;;;;;;;;;5055559;28;20210;-44
2021/04/12 00:31:38;;;;;;;0.60;0.60;;;;;;;;;;5054593;28;20179;-44
2021/04/12 00:34:10;;;;;;;0.77;0.77;;;;;;;;;;5054380;28;20249;-44
2021/04/12 00:36:36;;;;;;;0.80;0.80;;;;;;;;;;5055540;28;20483;-44
2021/04/12 00:39:07;;;;;;;0.85;0.80;;;;;;;;;;5055490;28;20175;-44
2021/04/12 00:41:33;;;;;;;1.27;0.80;;;;;;;;;;5054722;28;20563;-44
2021/04/12 00:44:07;;;;;;;0.80;0.80;;;;;;;;;;5055142;28;20193;-44
2021/04/12 00:47:05;;;;;;;0.65;0.63;;;;;;;;;;5054732;28;20648;-44
2021/04/12 00:49:37;;;;;;;0.70;0.70;;;;;;;;;;5009330;28;20249;-44
2021/04/12 00:52:22;;;;;;;0.70;0.70;;;;;;;;;;5053846;28;20182;-44
2021/04/12 00:54:53;;;;;;;0.77;0.77;;;;;;;;;;5054725;28;20208;-44
2021/04/12 00:57:36;;;;;;;0.68;0.68;;;;;;;;;;5054982;28;20164;-44
2021/04/12 01:00:05;;;;;;;0.73;0.70;;;;;;;;;;5054815;28;20175;-44
2021/04/12 01:02:31;;;;;;;0.77;0.77;;;;;;;;;;5054397;28;20203;-44
2021/04/12 01:05:30;;;;;;;0.70;0.70;;;;;;;;;;5054213;28;20205;-44
2021/04/12 01:07:59;;;;;;;0.50;0.50;;;;;;;;;;4997261;28;20227;-44
2021/04/12 01:10:43;;;;;;;0.70;0.70;;;;;;;;;;5054553;28;20176;-44
2021/04/12 01:13:12;;;;;;;0.70;0.70;;;;;;;;;;5054953;28;20171;-45
2021/04/12 01:15:42;;;;;;;0.75;0.73;;;;;;;;;;5054205;28;20714;-44
2021/04/12 01:18:13;;;;;;;0.60;0.60;;;;;;;;;;5054438;28;20179;-44
2021/04/12 01:20:52;;;;;;;0.65;0.65;;;;;;;;;;5053844;28;20171;-44
2021/04/12 01:23:18;;;;;;;0.68;0.68;;;;;;;;;;5054663;28;20577;-45
2021/04/12 01:25:44;;;;;;;1.95;0.70;;;;;;;;;;5054781;28;20210;-45
2021/04/12 01:28:16;;;;;;;0.60;0.60;;;;;;;;;;5054151;28;20186;-45
2021/04/12 01:30:54;;;;;;;0.60;0.60;;;;;;;;;;5054272;28;20171;-45
2021/04/12 01:33:23;;;;;;;0.70;0.70;;;;;;;;;;5050689;28;20198;-44
2021/04/12 01:36:15;;;;;;;0.50;0.50;;;;;;;;;;5054116;28;20210;-44
2021/04/12 01:38:58;;;;;;;0.50;0.50;;;;;;;;;;5050166;28;20279;-44
2021/04/12 01:41:27;;;;;;;0.60;0.60;;;;;;;;;;5049852;28;20576;-44
2021/04/12 01:44:11;;;;;;;0.50;0.50;;;;;;;;;;5054448;28;20186;-44
2021/04/12 01:46:46;;;;;;;0.80;0.80;;;;;;;;;;5053426;28;20508;-44
2021/04/12 01:49:33;;;;;;;0.60;0.60;;;;;;;;;;5053787;28;20182;-44
2021/04/12 01:52:17;;;;;;;0.70;0.70;;;;;;;;;;5053965;28;20222;-44
2021/04/12 01:54:46;;;;;;;0.75;0.75;;;;;;;;;;5054509;28;20447;-44
2021/04/12 01:57:30;;;;;;;0.50;0.50;;;;;;;;;;5054081;28;20179;-44
2021/04/12 02:00:25;;;;;;;0.47;0.47;;;;;;;;;;5054134;28;20182;-44
2021/04/12 02:03:09;;;;;;;0.50;0.50;;;;;;;;;;4941063;28;20180;-44
2021/04/12 02:05:35;;;;;;;0.50;0.50;;;;;;;;;;5052750;28;20174;-44
2021/04/12 02:08:19;;;;;;;1.65;0.50;;;;;;;;;;5053919;28;20194;-44
2021/04/12 02:10:56;;;;;;;0.63;0.60;;;;;;;;;;5053887;28;20570;-44
2021/04/12 02:13:40;;;;;;;0.60;0.60;;;;;;;;;;5054654;28;20183;-44
2021/04/12 02:16:19;;;;;;;0.55;0.55;;;;;;;;;;5053766;28;20195;-44
2021/04/12 02:18:59;;;;;;;0.63;0.63;;;;;;;;;;5057171;28;20269;-43
2021/04/12 02:21:48;;;;;;;1.58;0.52;;;;;;;;;;5047169;28;20558;-43
2021/04/12 02:24:32;;;;;;;0.57;0.57;;;;;;;;;;5012394;28;20187;-43
2021/04/12 02:27:07;;;;;;;0.60;0.60;;;;;;;;;;5043966;28;20183;-43
2021/04/12 02:29:33;;;;;;;0.60;0.60;;;;;;;;;;5057817;28;20186;-43
2021/04/12 02:32:14;;;;;;;0.95;0.40;;;;;;;;;;5057261;28;20183;-43
2021/04/12 02:34:43;;;;;;;0.45;0.45;;;;;;;;;;5057538;28;20210;-43
2021/04/12 02:37:09;;;;;;;0.40;0.40;;;;;;;;;;5057749;28;20183;-43
2021/04/12 02:39:54;;;;;;;0.30;0.30;;;;;;;;;;5057947;28;20171;-43
2021/04/12 02:42:23;;;;;;;0.70;0.50;;;;;;;;;;5057310;28;20274;-43
2021/04/12 02:45:04;;;;;;;0.40;0.40;;;;;;;;;;5057209;28;20179;-43
2021/04/12 02:47:30;;;;;;;0.40;0.40;;;;;;;;;;5057136;28;20262;-43
2021/04/12 02:50:02;;;;;;;1.85;0.50;;;;;;;;;;5057170;28;20267;-43
2021/04/12 02:52:31;;;;;;;0.40;0.40;;;;;;;;;;5056786;28;20573;-43
2021/04/12 02:55:10;;;;;;;0.40;0.40;;;;;;;;;;5057271;28;20617;-43
2021/04/12 02:57:48;;;;;;;0.40;0.40;;;;;;;;;;5056983;28;20175;-43
2021/04/12 03:00:14;;;;;;;0.50;0.50;;;;;;;;;;5056093;28;20252;-43
2021/04/12 03:02:47;;;;;;;0.50;0.50;;;;;;;;;;5056044;28;20562;-43
2021/04/12 03:05:32;;;;;;;0.93;0.50;;;;;;;;;;5057157;28;20191;-43
2021/04/12 03:07:58;;;;;;;0.50;0.50;;;;;;;;;;5050784;28;20197;-43
2021/04/12 03:10:30;;;;;;;1.77;0.50;;;;;;;;;;5056208;28;20183;-43
2021/04/12 03:13:05;;;;;;;0.63;0.38;;;;;;;;;;5056968;28;20171;-44
2021/04/12 03:15:34;;;;;;;0.35;0.35;;;;;;;;;;5056744;28;20202;-44
2021/04/12 03:18:19;;;;;;;0.43;0.43;;;;;;;;;;5056732;28;20193;-44
2021/04/12 03:20:57;;;;;;;0.50;0.50;;;;;;;;;;5055932;28;20585;-44
2021/04/12 03:23:26;;;;;;;0.30;0.30;;;;;;;;;;5037101;28;20168;-44
2021/04/12 03:26:01;;;;;;;0.30;0.30;;;;;;;;;;5056046;28;20186;-44
2021/04/12 03:28:46;;;;;;;0.50;0.40;;;;;;;;;;5056132;28;20253;-44
2021/04/12 03:31:14;;;;;;;0.32;0.32;;;;;;;;;;5056083;28;20171;-44
2021/04/12 03:33:58;;;;;;;0.25;0.25;;;;;;;;;;5056324;28;20172;-44
2021/04/12 03:36:24;;;;;;;0.30;0.30;;;;;;;;;;5048307;28;20211;-44
2021/04/12 03:39:29;;;;;;;0.40;0.40;;;;;;;;;;5056329;28;20202;-44
2021/04/12 03:42:13;;;;;;;0.43;0.43;;;;;;;;;;4993065;28;20188;-44
2021/04/12 03:44:59;;;;;;;0.40;0.40;;;;;;;;;;4985682;28;20181;-44
2021/04/12 03:47:37;;;;;;;0.50;0.50;;;;;;;;;;4999253;28;20198;-44
2021/04/12 03:50:21;;;;;;;0.40;0.40;;;;;;;;;;5055919;28;20179;-44
2021/04/12 03:53:16;;;;;;;0.30;0.30;;;;;;;;;;5053507;28;20250;-44
2021/04/12 03:55:53;;;;;;;0.40;0.40;;;;;;;;;;5056325;28;20191;-44
2021/04/12 03:58:19;;;;;;;0.30;0.30;;;;;;;;;;5055859;28;20513;-44
2021/04/12 04:00:50;;;;;;;0.30;0.30;;;;;;;;;;5055382;28;20274;-44
2021/04/12 04:03:37;;;;;;;0.45;0.45;;;;;;;;;;5055782;28;20217;-44
2021/04/12 04:06:19;;;;;;;0.57;0.40;;;;;;;;;;5053259;28;20183;-44
2021/04/12 04:09:04;;;;;;;0.40;0.40;;;;;;;;;;5035895;28;20164;-44
2021/04/12 04:11:36;;;;;;;0.40;0.40;;;;;;;;;;5049846;28;20665;-44
2021/04/12 04:14:05;;;;;;;0.43;0.43;;;;;;;;;;5056019;28;20546;-44
2021/04/12 04:16:43;;;;;;;0.30;0.30;;;;;;;;;;5055422;28;20264;-44
2021/04/12 04:19:12;;;;;;;0.40;0.40;;;;;;;;;;5054936;28;20186;-44
2021/04/12 04:21:56;;;;;;;0.45;0.45;;;;;;;;;;5055259;28;20554;-44
2021/04/12 04:24:25;;;;;;;0.20;0.20;;;;;;;;;;5055820;28;20201;-44
2021/04/12 04:27:03;;;;;;;0.38;0.38;;;;;;;;;;5055310;28;20262;-44
2021/04/12 04:29:49;;;;;;;0.30;0.30;;;;;;;;;;5055091;28;20210;-44
2021/04/12 04:32:20;;;;;;;0.40;0.40;;;;;;;;;;5054629;28;20601;-44
2021/04/12 04:34:49;;;;;;;0.30;0.30;;;;;;;;;;5055081;28;20213;-44
2021/04/12 04:37:35;;;;;;;0.90;0.30;;;;;;;;;;5055304;28;20183;-45
2021/04/12 04:40:22;;;;;;;0.30;0.30;;;;;;;;;;5054422;28;20550;-44
2021/04/12 04:43:00;;;;;;;0.32;0.32;;;;;;;;;;5055020;28;20167;-44
2021/04/12 04:45:45;;;;;;;0.40;0.40;;;;;;;;;;5046268;28;20194;-44
2021/04/12 04:48:11;;;;;;;0.52;0.50;;;;;;;;;;5051915;28;20436;-45
2021/04/12 04:50:37;;;;;;;0.32;0.30;;;;;;;;;;5054477;28;20542;-45
2021/04/12 04:53:06;;;;;;;0.50;0.50;;;;;;;;;;5054926;28;20175;-45
2021/04/12 04:55:52;;;;;;;0.30;0.30;;;;;;;;;;5055203;28;20273;-45
2021/04/12 04:58:23;;;;;;;0.40;0.40;;;;;;;;;;5010568;28;20229;-45
2021/04/12 05:00:58;;;;;;;0.40;0.40;;;;;;;;;;5054205;28;20205;-45
2021/04/12 05:03:43;;;;;;;0.30;0.30;;;;;;;;;;5054544;28;20179;-45
2021/04/12 05:06:29;;;;;;;0.50;0.50;;;;;;;;;;5043639;28;20186;-45
2021/04/12 05:09:14;;;;;;;0.40;0.40;;;;;;;;;;5043002;28;20182;-45
2021/04/12 05:11:58;;;;;;;0.47;0.47;;;;;;;;;;5052357;28;20198;-45
2021/04/12 05:14:35;;;;;;;0.40;0.40;;;;;;;;;;5054688;28;20290;-45
2021/04/12 05:17:10;;;;;;;0.52;0.40;;;;;;;;;;5054561;28;20554;-45
2021/04/12 05:19:50;;;;;;;4.75;0.68;;;;;;;;;;5054432;28;20185;-46
2021/04/12 05:22:34;;;;;;;1.30;0.57;;;;;;;;;;5053747;28;20225;-45
2021/04/12 05:25:08;;;;;;;1.45;0.50;;;;;;;;;;5052287;28;20198;-45
2021/04/12 05:27:42;;;;;;;0.60;0.50;;;;;;;;;;5052872;28;20186;-44
2021/04/12 05:30:25;;;;;;;3.35;0.50;;;;;;;;;;5050833;28;20253;-45
2021/04/12 05:33:05;;;;;;;3.25;0.82;;;;;;;;;;5054176;28;20570;-45
2021/04/12 05:35:37;;;;;;;3.05;0.82;;;;;;;;;;5053463;28;20210;-45
2021/04/12 05:38:13;;;;;;;1.38;0.55;;;;;;;;;;5054191;28;20519;-45
2021/04/12 05:41:00;;;;;;;2.83;0.77;;;;;;;;;;5053650;28;20175;-45
2021/04/12 05:43:26;;;;;;;2.53;0.70;;;;;;;;;;5042370;28;20175;-45
2021/04/12 05:46:07;;;;;;;3.30;0.65;;;;;;;;;;5053160;28;20483;-45
2021/04/12 05:48:48;;;;;;;1.20;0.60;;;;;;;;;;5047929;28;20248;-45
2021/04/12 05:51:24;;;;;;;0.60;0.60;;;;;;;;;;5053844;28;20194;-45
2021/04/12 05:53:53;;;;;;;2.25;0.80;;;;;;;;;;5057675;28;20212;-45
2021/04/12 05:56:26;;;;;;;4.70;1.02;;;;;;;;;;5057966;28;20242;-47
2021/04/12 05:59:08;;;;;;;3.67;1.02;;;;;;;;;;5057124;28;20183;-47
2021/04/12 06:01:44;;;;;;;1.88;0.90;;;;;;;;;;5057416;28;20590;-47
2021/04/12 06:04:34;;;;;;;3.10;1.05;;;;;;;;;;5057745;28;20214;-47
2021/04/12 06:07:03;;;;;;;6.05;1.50;;;;;;;;;;5057592;28;20190;-47
2021/04/12 06:09:34;;;;;;;2.92;1.10;;;;;;;;;;5057803;28;20175;-45
2021/04/12 06:12:19;;;;;;;3.38;1.58;;;;;;;;;;5056382;28;20434;-45
2021/04/12 06:14:57;;;;;;;2.03;1.25;;;;;;;;;;5058129;28;20155;-48
2021/04/12 06:17:33;;;;;;;2.80;1.40;;;;;;;;;;5038213;28;20184;-48
2021/04/12 06:20:02;;;;;;;2.55;1.45;;;;;;;;;;5038022;28;20221;-54
2021/04/12 06:22:47;;;;;;;5.93;1.40;;;;;;;;;;5056788;28;20589;-48
2021/04/12 06:25:31;;;;;;;4.00;1.75;;;;;;;;;;5057501;28;20658;-46
2021/04/12 06:28:22;;;;;;;4.97;1.52;;;;;;;;;;5056948;28;20187;-47
2021/04/12 06:31:07;;;;;;;2.22;1.40;;;;;;;;;;5057417;28;20183;-48
2021/04/12 06:33:45;;;;;;;1.65;1.55;;;;;;;;;;5057477;28;20577;-46
2021/04/12 06:36:11;;;;;;;4.40;1.77;;;;;;;;;;5055911;28;20238;-46
2021/04/12 06:38:37;;;;;;;4.93;1.50;;;;;;;;;;5054651;28;20211;-46
2021/04/12 06:41:21;;;;;;;5.30;1.73;;;;;;;;;;5056406;28;20203;-47
2021/04/12 06:43:47;;;;;;;2.58;1.88;;;;;;;;;;5037136;28;20245;-46
2021/04/12 06:46:19;;;;;;;3.15;1.63;;;;;;;;;;5055339;28;20550;-47
2021/04/12 06:48:54;;;;;;;6.30;1.60;;;;;;;;;;5057209;28;20655;-47
2021/04/12 06:51:39;;;;;;;2.03;1.88;;;;;;;;;;5041807;28;20185;-47
2021/04/12 06:54:24;;;;;;;6.65;2.00;;;;;;;;;;5055928;28;20175;-46
2021/04/12 06:57:19;;;;;;;3.88;2.10;;;;;;;;;;5055402;28;20574;-47
2021/04/12 06:59:58;;;;;;;5.15;1.63;;;;;;;;;;5051624;28;20236;-47
2021/04/12 07:02:36;;;;;;;3.38;1.83;;;;;;;;;;5055806;28;20240;-47
2021/04/12 07:05:20;;;;;;;2.33;1.58;;;;;;;;;;5056358;28;20218;-48
2021/04/12 07:08:05;;;;;;;8.18;2.55;;;;;;;;;;5053260;28;20210;-47
2021/04/12 07:10:48;;;;;;;4.78;1.70;;;;;;;;;;5056085;28;20179;-46
2021/04/12 07:13:14;;;;;;;3.33;2.28;;;;;;;;;;5056883;28;20178;-46
2021/04/12 07:15:43;;;;;;;2.38;2.17;;;;;;;;;;5055421;28;20230;-46
2021/04/12 07:18:27;;;;;;;2.65;2.20;;;;;;;;;;5055882;28;20189;-46
2021/04/12 07:21:12;;;;;;;3.30;2.03;;;;;;;;;;5053730;28;20217;-47
2021/04/12 07:23:41;;;;;;;3.03;1.65;;;;;;;;;;5056582;28;20187;-48
2021/04/12 07:26:16;;;;;;;2.25;1.88;;;;;;;;;;5056430;28;20186;-47
2021/04/12 07:28:57;;;;;;;3.22;2.28;;;;;;;;;;5056362;28;20179;-47
2021/04/12 07:31:35;;;;;;;2.55;2.33;;;;;;;;;;5055957;28;20337;-47
2021/04/12 07:34:10;;;;;;;5.43;2.50;;;;;;;;;;5056249;28;20282;-47
2021/04/12 07:36:52;;;;;;;4.55;2.10;;;;;;;;;;5054533;28;20217;-46
2021/04/12 07:39:27;;;;;;;2.25;2.05;;;;;;;;;;5056164;28;20211;-47
2021/04/12 07:42:12;;;;;;;4.32;1.80;;;;;;;;;;5049871;28;20175;-47
2021/04/12 07:44:40;;;;;;;4.20;2.00;;;;;;;;;;5036653;28;20179;-50
2021/04/12 07:47:25;;;;;;;2.85;2.10;;;;;;;;;;5036683;28;20187;-47
2021/04/12 07:50:06;;;;;;;2.80;1.60;;;;;;;;;;5035703;28;20168;-45
2021/04/12 07:52:34;;;;;;;2.75;1.40;;;;;;;;;;5053331;28;20214;-44
2021/04/12 07:55:01;;;;;;;2.05;1.17;;;;;;;;;;5056285;28;20290;-45
2021/04/12 07:57:29;;;;;;;3.72;1.27;;;;;;;;;;5055317;28;20187;-46
2021/04/12 08:00:10;;;;;;;2.38;1.08;;;;;;;;;;5052585;28;20175;-47
2021/04/12 08:02:43;;;;;;;3.83;1.02;;;;;;;;;;5051641;28;20203;-45
2021/04/12 08:05:28;;;;;;;1.98;1.10;;;;;;;;;;5055819;28;20190;-47
2021/04/12 08:08:12;;;;;;;5.68;0.98;;;;;;;;;;5054946;28;20190;-43
2021/04/12 08:10:54;;;;;;;5.20;1.00;;;;;;;;;;5055330;28;20175;-46
2021/04/12 08:13:32;;;;;;;1.52;0.93;;;;;;;;;;5055442;28;20262;-46
2021/04/12 08:16:16;;;;;;;1.90;1.00;;;;;;;;;;5053896;28;20294;-45
2021/04/12 08:18:43;;;;;;;5.20;0.90;;;;;;;;;;5055342;28;20183;-45
2021/04/12 08:21:09;;;;;;;1.92;0.90;;;;;;;;;;5054648;28;20175;-44
2021/04/12 08:23:53;;;;;;;3.70;1.10;;;;;;;;;;5055642;28;20194;-47
2021/04/12 08:26:38;;;;;;;2.70;0.90;;;;;;;;;;5055658;28;20186;-44
2021/04/12 08:29:04;;;;;;;7.25;1.58;;;;;;;;;;5052568;28;20628;-44
2021/04/12 08:31:52;;;;;;;3.55;0.85;;;;;;;;;;5054613;28;20262;-44
2021/04/12 08:34:36;;;;;;;1.30;0.90;;;;;;;;;;5053903;28;20214;-46
2021/04/12 08:37:12;;;;;;;2.92;1.00;;;;;;;;;;5052107;28;20191;-43
2021/04/12 08:40:08;;;;;;;3.10;0.90;;;;;;;;;;5049338;28;20210;-45
2021/04/12 08:42:53;;;;;;;1.67;1.10;;;;;;;;;;5035037;28;20179;-47
2021/04/12 08:45:21;;;;;;;1.00;0.90;;;;;;;;;;5051865;28;20178;-46
2021/04/12 08:47:48;;;;;;;4.07;0.88;;;;;;;;;;5055136;28;20180;-45
2021/04/12 08:50:29;;;;;;;3.92;1.10;;;;;;;;;;5054899;28;20236;-46
2021/04/12 08:53:01;;;;;;;11.90;1.17;;;;;;;;;;5035185;28;20172;-46
2021/04/12 08:55:46;;;;;;;2.83;0.90;;;;;;;;;;5039510;28;20286;-47
2021/04/12 08:58:15;;;;;;;0.80;0.80;;;;;;;;;;5054258;28;20175;-46
2021/04/12 09:00:41;;;;;;;1.13;0.80;;;;;;;;;;5053396;28;20605;-46
2021/04/12 09:03:26;;;;;;;5.93;0.90;;;;;;;;;;5054270;28;20203;-47
2021/04/12 09:05:52;;;;;;;2.90;0.90;;;;;;;;;;5054341;28;20175;-46
2021/04/12 09:08:45;;;;;;;3.10;0.80;;;;;;;;;;5054768;28;20180;-46
2021/04/12 09:11:29;;;;;;;3.00;1.00;;;;;;;;;;5054259;28;20210;-47
2021/04/12 09:14:08;;;;;;;1.20;1.00;;;;;;;;;;5054334;28;20581;-47
2021/04/12 09:16:51;;;;;;;2.50;0.80;;;;;;;;;;5050494;28;20300;-48
2021/04/12 09:19:26;;;;;;;1.45;0.90;;;;;;;;;;5054627;28;20186;-45
2021/04/12 09:22:03;;;;;;;0.85;0.70;;;;;;;;;;5054037;28;20163;-46
2021/04/12 09:24:33;;;;;;;0.90;0.90;;;;;;;;;;5054296;28;20175;-49
2021/04/12 09:27:17;;;;;;;0.95;0.70;;;;;;;;;;5054316;28;20183;-49
2021/04/12 09:30:02;;;;;;;2.67;0.80;;;;;;;;;;5054035;28;20206;-46
2021/04/12 09:32:31;;;;;;;2.33;1.10;;;;;;;;;;5051920;28;20206;-46
2021/04/12 09:35:16;;;;;;;6.43;1.60;;;;;;;;;;5054108;28;20207;-48
2021/04/12 09:38:01;;;;;;;2.92;1.63;;;;;;;;;;5053954;28;20199;-48
2021/04/12 09:40:27;;;;;;;4.55;1.30;;;;;;;;;;5054326;28;20167;-47
2021/04/12 09:43:04;;;;;;;5.18;1.38;;;;;;;;;;5055005;28;20217;-49
2021/04/12 09:45:42;;;;;;;2.35;1.65;;;;;;;;;;5053831;28;20175;-48
2021/04/12 09:48:26;;;;;;;4.15;1.55;;;;;;;;;;5054049;28;20189;-44
2021/04/12 09:50:52;;;;;;;1.38;1.20;;;;;;;;;;5053968;28;20690;-42
2021/04/12 09:53:36;;;;;;;2.45;1.40;;;;;;;;;;5053283;28;20187;-48
2021/04/12 09:56:12;;;;;;;2.05;1.38;;;;;;;;;;5053635;28;20211;-48
2021/04/12 09:58:57;;;;;;;1.38;1.27;;;;;;;;;;5053643;28;20258;-42
2021/04/12 10:01:23;;;;;;;2.88;1.27;;;;;;;;;;5042728;28;20252;-47
2021/04/12 10:04:07;;;;;;;2.70;1.20;;;;;;;;;;5053991;28;20179;-46
2021/04/12 10:06:52;;;;;;;2.13;1.38;;;;;;;;;;5038865;28;20480;-45
2021/04/12 10:09:33;;;;;;;1.25;1.10;;;;;;;;;;5034260;28;20168;-48
2021/04/12 10:12:05;;;;;;;1.25;1.10;;;;;;;;;;5049890;28;20270;-46
2021/04/12 10:14:32;;;;;;;0.93;0.93;;;;;;;;;;5053958;28;20190;-46
2021/04/12 10:17:03;;;;;;;0.90;0.85;;;;;;;;;;5053866;28;20593;-46
2021/04/12 10:19:35;;;;;;;3.67;1.10;;;;;;;;;;5053644;28;20179;-46
2021/04/12 10:22:13;;;;;;;1.73;1.05;;;;;;;;;;5053218;28;20225;-45
2021/04/12 10:24:56;;;;;;;1.17;1.02;;;;;;;;;;5054040;28;20197;-46
2021/04/12 10:27:32;;;;;;;2.83;1.10;;;;;;;;;;5052787;28;20448;-45
2021/04/12 10:29:58;;;;;;;0.80;0.80;;;;;;;;;;5053226;28;20226;-46
2021/04/12 10:32:31;;;;;;;6.80;1.05;;;;;;;;;;5035811;28;20195;-46
2021/04/12 10:34:58;;;;;;;3.67;0.95;;;;;;;;;;5053749;28;20272;-45
2021/04/12 10:37:37;;;;;;;6.35;1.40;;;;;;;;;;5054057;28;20167;-45
2021/04/12 10:40:12;;;;;;;2.25;0.85;;;;;;;;;;5057650;28;20163;-46
2021/04/12 10:42:44;;;;;;;2.55;0.93;;;;;;;;;;5057140;28;20178;-47
2021/04/12 10:45:10;;;;;;;2.50;1.30;;;;;;;;;;5056826;28;20198;-44
2021/04/12 10:47:57;;;;;;;1.65;1.00;;;;;;;;;;5057734;28;20173;-46
2021/04/12 10:50:31;;;;;;;2.17;0.80;;;;;;;;;;5057076;28;20248;-44
2021/04/12 10:53:03;;;;;;;4.00;0.90;;;;;;;;;;5057472;28;20216;-44
2021/04/12 10:55:36;;;;;;;5.63;0.90;;;;;;;;;;5056957;28;20592;-43
2021/04/12 10:58:23;;;;;;;3.50;1.00;;;;;;;;;;5056259;28;20179;-44
2021/04/12 11:00:52;;;;;;;1.85;0.90;;;;;;;;;;5056561;28;20199;-46
2021/04/12 11:03:34;;;;;;;5.85;1.17;;;;;;;;;;5055683;28;20212;-46
2021/04/12 11:06:03;;;;;;;8.65;1.40;;;;;;;;;;5057166;28;20792;-48
2021/04/12 11:08:31;;;;;;;4.10;1.45;;;;;;;;;;5057081;28;20341;-48
2021/04/12 11:11:10;;;;;;;2.78;1.35;;;;;;;;;;5056642;28;20167;-45
2021/04/12 11:13:36;;;;;;;4.88;1.30;;;;;;;;;;5056857;28;20183;-48
2021/04/12 11:16:13;;;;;;;4.18;1.20;;;;;;;;;;5056831;28;20203;-48
2021/04/12 11:18:58;;;;;;;1.48;1.10;;;;;;;;;;5037029;28;20255;-48
2021/04/12 11:21:28;;;;;;;1.83;0.90;;;;;;;;;;5036553;28;20179;-48
2021/04/12 11:23:54;;;;;;;5.03;1.00;;;;;;;;;;5036907;28;20164;-46
2021/04/12 11:26:24;;;;;;;2.10;1.00;;;;;;;;;;5048336;28;20183;-48
2021/04/12 11:28:55;;;;;;;2.47;1.13;;;;;;;;;;5056267;28;20182;-48
2021/04/12 11:31:39;;;;;;;0.77;0.77;;;;;;;;;;5056370;28;20182;-48
2021/04/12 11:34:20;;;;;;;2.75;1.08;;;;;;;;;;5055521;28;20577;-49
2021/04/12 11:36:49;;;;;;;1.85;1.00;;;;;;;;;;5056251;28;20206;-49
2021/04/12 11:39:24;;;;;;;0.80;0.80;;;;;;;;;;5056657;28;20189;-52
2021/04/12 11:41:55;;;;;;;0.80;0.80;;;;;;;;;;5055637;28;20573;-48
2021/04/12 11:44:26;;;;;;;5.75;1.40;;;;;;;;;;5056495;28;20179;-47
2021/04/12 11:47:06;;;;;;;3.33;1.00;;;;;;;;;;5056289;28;20174;-46
2021/04/12 11:49:32;;;;;;;6.30;1.52;;;;;;;;;;5056086;28;20249;-46
2021/04/12 11:52:13;;;;;;;4.22;1.17;;;;;;;;;;5055820;28;20206;-46
2021/04/12 11:54:58;;;;;;;4.55;1.27;;;;;;;;;;5056164;28;20206;-46
2021/04/12 11:57:33;;;;;;;4.80;1.20;;;;;;;;;;5055727;28;20258;-45
2021/04/12 12:00:07;;;;;;;5.40;1.30;;;;;;;;;;5055737;28;20464;-45
2021/04/12 12:02:43;;;;;;;4.80;1.30;;;;;;;;;;5055442;28;20199;-45
2021/04/12 12:05:14;;;;;;;5.63;1.25;;;;;;;;;;5055937;28;20175;-46
2021/04/12 12:07:49;;;;;;;7.18;1.10;;;;;;;;;;5055289;28;20179;-43
2021/04/12 12:10:28;;;;;;;4.32;1.35;;;;;;;;;;5055405;28;20178;-45
2021/04/12 12:13:29;;;;;;;18.25;1.45;;;;;;;;;;5055787;28;20179;-46
2021/04/12 12:16:13;;;;;;;6.32;1.30;;;;;;;;;;5055168;28;20194;-46
2021/04/12 12:18:44;;;;;;;3.72;1.10;;;;;;;;;;5052959;28;20183;-45
2021/04/12 12:21:15;;;;;;;9.25;1.20;;;;;;;;;;5054708;28;20655;-46
2021/04/12 12:24:00;;;;;;;6.22;1.33;;;;;;;;;;5043541;28;20290;-46
2021/04/12 12:26:26;;;;;;;10.50;1.42;;;;;;;;;;5053879;28;20186;-46
2021/04/12 12:29:03;;;;;;;5.80;1.13;;;;;;;;;;5055160;28;20183;-44
2021/04/12 12:34:08;;;;;;;5.00;1.40;;;;;;;;;;5055255;28;20282;-48
2021/04/12 12:36:43;;;;;;;7.95;1.50;;;;;;;;;;5054811;28;20210;-47
2021/04/12 12:39:28;;;;;;;6.15;1.50;;;;;;;;;;5054871;28;20179;-48
2021/04/12 12:41:55;;;;;;;7.70;1.83;;;;;;;;;;5053934;28;20182;-46
2021/04/12 12:44:23;;;;;;;11.65;2.30;;;;;;;;;;5054973;28;20183;-47
2021/04/12 12:46:49;;;;;;;14.70;2.20;;;;;;;;;;5055077;28;20179;-46
2021/04/12 12:49:21;;;;;;;12.70;2.10;;;;;;;;;;5054904;28;20233;-47
2021/04/12 12:51:49;;;;;;;11.73;2.00;;;;;;;;;;5054025;28;20175;-46
2021/04/12 12:54:27;;;;;;;8.82;1.77;;;;;;;;;;5055042;28;20187;-47
2021/04/12 12:57:00;;;;;;;12.07;1.98;;;;;;;;;;5054346;28;20597;-45
2021/04/12 12:59:27;;;;;;;11.43;1.70;;;;;;;;;;5054384;28;20896;-46
2021/04/12 13:01:54;;;;;;;6.93;1.83;;;;;;;;;;5053439;28;20209;-46
2021/04/12 13:04:22;;;;;;;8.15;2.10;;;;;;;;;;5054695;28;20210;-46
2021/04/12 13:06:50;;;;;;;10.23;1.80;;;;;;;;;;5052733;28;20600;-46
2021/04/12 13:09:23;;;;;;;10.23;1.83;;;;;;;;;;5054832;28;20175;-48
2021/04/12 13:11:55;;;;;;;5.57;1.20;;;;;;;;;;5053772;28;20236;-48
2021/04/12 13:14:30;;;;;;;6.47;1.52;;;;;;;;;;5053518;28;20199;-47
2021/04/12 13:16:58;;;;;;;10.75;1.85;;;;;;;;;;5050958;28;20236;-46
2021/04/12 13:19:25;;;;;;;6.80;1.55;;;;;;;;;;5054370;28;20198;-46
2021/04/12 13:22:00;;;;;;;7.53;1.58;;;;;;;;;;5053678;28;20167;-46
2021/04/12 13:24:26;;;;;;;3.60;1.50;;;;;;;;;;5054733;28;20188;-46
2021/04/12 13:27:11;;;;;;;6.38;1.50;;;;;;;;;;5054210;28;20254;-46
2021/04/12 13:29:46;;;;;;;3.72;1.33;;;;;;;;;;5054369;28;20179;-46
2021/04/12 13:32:14;;;;;;;8.68;1.50;;;;;;;;;;5054489;28;20587;-46
2021/04/12 13:34:42;;;;;;;3.83;1.30;;;;;;;;;;5054416;28;20645;-46
2021/04/12 13:37:16;;;;;;;7.10;1.38;;;;;;;;;;5054088;28;20219;-46
2021/04/12 13:39:44;;;;;;;2.80;1.30;;;;;;;;;;5054313;28;20171;-46
2021/04/12 13:42:14;;;;;;;5.68;1.75;;;;;;;;;;5054135;28;20176;-46
2021/04/12 13:44:51;;;;;;;4.13;1.52;;;;;;;;;;5054516;28;20202;-46
2021/04/12 13:47:26;;;;;;;6.47;1.95;;;;;;;;;;5052906;28;20178;-46
2021/04/12 13:50:00;;;;;;;5.90;1.85;;;;;;;;;;5053515;28;20178;-46
2021/04/12 13:52:29;;;;;;;6.80;1.92;;;;;;;;;;5053708;28;20237;-46
2021/04/12 13:54:58;;;;;;;5.00;1.80;;;;;;;;;;5053980;28;20252;-46
2021/04/12 13:57:23;;;;;;;3.83;1.60;;;;;;;;;;5054578;28;20274;-47
2021/04/12 13:59:56;;;;;;;4.43;1.70;;;;;;;;;;5054186;28;20254;-46
2021/04/12 14:02:29;;;;;;;6.13;1.73;;;;;;;;;;5053284;28;20201;-46
2021/04/12 14:04:59;;;;;;;6.18;1.95;;;;;;;;;;5053902;28;20492;-46
2021/04/12 14:07:43;;;;;;;5.38;1.80;;;;;;;;;;5053837;28;20210;-46
2021/04/12 14:10:13;;;;;;;5.75;1.40;;;;;;;;;;5053937;28;20186;-46
2021/04/12 14:12:48;;;;;;;4.60;1.52;;;;;;;;;;5055347;28;20163;-46
2021/04/12 14:15:23;;;;;;;9.88;2.13;;;;;;;;;;5058032;28;20202;-46
2021/04/12 14:17:56;;;;;;;2.80;1.60;;;;;;;;;;5057641;28;20190;-46
2021/04/12 14:20:37;;;;;;;6.40;1.90;;;;;;;;;;5054873;28;20302;-46
2021/04/12 14:23:32;;;;;;;8.32;1.70;;;;;;;;;;5057350;28;20190;-46
2021/04/12 14:26:06;;;;;;;6.57;1.63;;;;;;;;;;5040637;28;20198;-46
2021/04/12 14:28:37;;;;;;;1.95;1.30;;;;;;;;;;5057903;28;20182;-46
2021/04/12 14:31:06;;;;;;;4.40;1.40;;;;;;;;;;5057420;28;20164;-46
2021/04/12 14:33:33;;;;;;;11.32;1.65;;;;;;;;;;5056474;28;20179;-46
2021/04/12 14:36:07;;;;;;;7.57;1.80;;;;;;;;;;5056687;28;20492;-46
2021/04/12 14:38:33;;;;;;;4.00;1.83;;;;;;;;;;5054452;28;20233;-46
2021/04/12 14:41:05;;;;;;;3.15;1.30;;;;;;;;;;5057242;28;20262;-46
2021/04/12 14:43:33;;;;;;;2.13;1.55;;;;;;;;;;5057556;28;20497;-46
2021/04/12 14:46:12;;;;;;;3.05;1.38;;;;;;;;;;5056883;28;20187;-46
2021/04/12 14:48:41;;;;;;;3.90;1.25;;;;;;;;;;5057943;28;20221;-46
2021/04/12 14:51:08;;;;;;;3.00;1.55;;;;;;;;;;5056798;28;20268;-46
2021/04/12 14:53:36;;;;;;;2.97;1.20;;;;;;;;;;5056723;28;20175;-46
2021/04/12 14:56:04;;;;;;;4.30;1.60;;;;;;;;;;5056586;28;20210;-46
2021/04/12 14:58:35;;;;;;;2.90;1.50;;;;;;;;;;5056802;28;20241;-46
2021/04/12 15:01:21;;;;;;;2.15;1.30;;;;;;;;;;5056893;28;20171;-46
2021/04/12 15:03:58;;;;;;;2.33;1.40;;;;;;;;;;5056661;28;20241;-46
2021/04/12 15:06:27;;;;;;;2.83;1.40;;;;;;;;;;5056743;28;20215;-46
2021/04/12 15:09:03;;;;;;;3.80;1.20;;;;;;;;;;5056277;28;20562;-46
2021/04/12 15:11:50;;;;;;;3.00;1.70;;;;;;;;;;5056475;28;20182;-46
2021/04/12 15:14:19;;;;;;;2.70;1.30;;;;;;;;;;5056061;28;20190;-46
2021/04/12 15:16:47;;;;;;;3.53;1.33;;;;;;;;;;5052670;28;20548;-46
2021/04/12 15:19:33;;;;;;;4.20;1.25;;;;;;;;;;5056269;28;20573;-46
2021/04/12 15:22:04;;;;;;;2.65;1.50;;;;;;;;;;5053593;28;20191;-46
2021/04/12 15:24:31;;;;;;;3.45;1.38;;;;;;;;;;5050317;28;20189;-46
2021/04/12 15:26:59;;;;;;;4.18;1.50;;;;;;;;;;5060276;28;20179;-46
2021/04/12 15:29:32;;;;;;;1.90;1.13;;;;;;;;;;5056652;28;20198;-46
2021/04/12 15:32:00;;;;;;;1.95;1.35;;;;;;;;;;5059321;28;20329;-46
2021/04/12 15:34:33;;;;;;;3.08;1.27;;;;;;;;;;5056210;28;20194;-46
2021/04/12 15:37:00;;;;;;;2.60;1.50;;;;;;;;;;5052608;28;20222;-46